createdAt,value
2022-10-13T00:12:49.231Z,5.77
2022-10-13T00:27:50.672Z,4.30
2022-10-13T00:42:52.133Z,4.97
2022-10-13T00:57:53.584Z,4.00
2022-10-13T01:12:55.046Z,5.10
2022-10-13T01:27:56.513Z,4.40
2022-10-13T01:42:57.945Z,4.43
2022-10-13T01:57:59.399Z,3.90
2022-10-13T02:13:00.894Z,3.97
2022-10-13T02:28:02.348Z,4.20
2022-10-13T02:43:03.813Z,4.53
2022-10-13T02:58:05.270Z,3.57
2022-10-13T03:13:06.728Z,5.57
2022-10-13T03:28:08.167Z,4.63
2022-10-13T03:43:09.634Z,6.93
2022-10-13T03:58:11.094Z,16.03
2022-10-13T04:13:12.588Z,10.27
2022-10-13T04:28:14.057Z,11.73
2022-10-13T04:43:15.517Z,13.47
2022-10-13T04:58:16.977Z,14.07
2022-10-13T05:13:18.412Z,10.70
2022-10-13T05:28:19.892Z,9.13
2022-10-13T05:43:21.401Z,9.40
2022-10-13T05:58:22.841Z,6.93
2022-10-13T06:13:27.591Z,7.67
2022-10-13T06:28:29.165Z,6.30
2022-10-13T06:43:35.942Z,6.63
2022-10-13T06:58:40.252Z,5.73
2022-10-13T07:13:45.326Z,8.73
2022-10-13T07:28:48.944Z,6.40
2022-10-13T07:43:50.437Z,6.27
2022-10-13T07:58:51.884Z,7.43
2022-10-13T08:13:53.329Z,7.87
2022-10-13T08:29:16.674Z,7.13
2022-10-13T08:59:37.621Z,8.67
2022-10-13T09:14:39.075Z,7.93
2022-10-13T09:29:40.544Z,6.50
2022-10-13T09:44:41.981Z,7.57
2022-10-13T09:59:43.417Z,6.23
2022-10-13T10:14:44.857Z,6.27
2022-10-13T10:29:46.301Z,6.80
2022-10-13T10:44:47.756Z,7.37
2022-10-13T10:59:52.064Z,6.10
2022-10-13T11:14:53.516Z,9.40
2022-10-13T11:29:54.965Z,7.73
2022-10-13T11:44:56.403Z,5.23
2022-10-13T11:59:57.854Z,5.97
2022-10-13T12:15:02.641Z,6.47
2022-10-13T12:30:07.525Z,6.80
2022-10-13T12:45:08.982Z,8.20
2022-10-13T13:00:10.434Z,5.47
2022-10-13T13:15:11.877Z,6.53
2022-10-13T13:30:13.331Z,6.83
2022-10-13T13:45:14.794Z,6.07
2022-10-13T14:00:16.238Z,5.33
2022-10-13T14:15:17.697Z,5.67
2022-10-13T14:30:19.141Z,5.63
2022-10-13T14:45:20.591Z,5.60
2022-10-13T15:00:22.048Z,5.83
2022-10-13T15:15:23.501Z,4.93
2022-10-13T15:30:24.958Z,6.23
2022-10-13T15:45:26.407Z,5.63
2022-10-13T16:00:27.956Z,5.47
2022-10-13T16:15:29.524Z,6.30
2022-10-13T16:30:30.978Z,8.33
2022-10-13T16:45:55.242Z,9.07
2022-10-13T17:00:53.910Z,9.77
2022-10-13T17:15:55.422Z,8.20
2022-10-13T17:30:56.930Z,6.70
2022-10-13T17:46:17.718Z,8.80
2022-10-13T18:01:20.014Z,6.40
2022-10-13T18:16:21.579Z,6.97
2022-10-13T18:31:23.085Z,5.83
2022-10-13T18:46:24.542Z,6.30
2022-10-13T19:01:26.175Z,7.77
2022-10-13T19:16:27.684Z,7.27
2022-10-13T19:31:29.152Z,7.00
2022-10-13T19:46:30.621Z,6.63
2022-10-13T20:01:33.251Z,6.07
2022-10-13T20:16:34.698Z,6.53
2022-10-13T20:31:36.157Z,10.53
2022-10-13T20:46:37.606Z,7.33
2022-10-13T21:01:39.072Z,7.17
2022-10-13T21:16:40.525Z,8.03
2022-10-13T21:31:41.987Z,5.97
2022-10-13T21:46:43.462Z,6.27
2022-10-13T22:01:44.904Z,7.60
2022-10-13T22:16:46.355Z,5.53
2022-10-13T22:31:47.802Z,4.97
2022-10-13T22:46:49.258Z,5.50
2022-10-13T23:01:50.718Z,5.30
2022-10-13T23:16:52.166Z,5.33
2022-10-13T23:31:53.628Z,4.30
2022-10-13T23:46:55.083Z,4.63
